Terminal Aerodrome Forecast
Issued by NWS

Home | Current Version | Previous Version | Text Only | Print | Product List | Glossary On
Versions: 1 2 3 4 5 6 7 8 9 10 11 12 13 14
000
FTUS46 KHNX 231100
TAFMCE
TAF
KMCE 231120Z 2312/2412 34008KT P6SM SCT200
     FM231900 31012G18KT P6SM FEW200
     FM240600 33007KT P6SM SKC=

USA.gov is the U.S. government's official web portal to all federal, state and local government web resources and services.